Terminal Aerodrome Forecast
Issued by NWS

Home | Current Version | Previous Version | Text Only | Print | Product List | Glossary On
Versions: 1 2 3 4 5 6 7 8 9 10 11 12 13 14 15
965
FTUS42 KTBW 271130
TAFRSW
TAF
KRSW 271130Z 2712/2812 05009KT P6SM SKC
     FM271300 09010KT P6SM FEW040 SCT250
     FM271600 14012G18KT P6SM SCT050 SCT250
     FM272200 16010KT P6SM FEW050 SCT250
     FM280200 VRB04KT P6SM FEW040 SCT250=

USA.gov is the U.S. government's official web portal to all federal, state and local government web resources and services.